sensor_id;sensor_type;location;lat;lon;timestamp;P1;durP1;ratioP1;P2;durP2;ratioP2
68212;SDS011;55035;47.792;8.724;2023-12-07T00:01:16;33.60;;;30.30;;
68212;SDS011;55035;47.792;8.724;2023-12-07T00:03:42;34.65;;;31.05;;
68212;SDS011;55035;47.792;8.724;2023-12-07T00:06:09;33.42;;;30.02;;
68212;SDS011;55035;47.792;8.724;2023-12-07T00:08:37;30.92;;;27.70;;
68212;SDS011;55035;47.792;8.724;2023-12-07T00:11:03;30.27;;;27.27;;
68212;SDS011;55035;47.792;8.724;2023-12-07T00:13:31;31.33;;;28.33;;
68212;SDS011;55035;47.792;8.724;2023-12-07T00:15:58;33.40;;;30.20;;
68212;SDS011;55035;47.792;8.724;2023-12-07T00:18:24;32.20;;;29.02;;
68212;SDS011;55035;47.792;8.724;2023-12-07T00:20:51;30.95;;;27.95;;
68212;SDS011;55035;47.792;8.724;2023-12-07T00:23:18;31.15;;;28.05;;
68212;SDS011;55035;47.792;8.724;2023-12-07T00:25:46;32.83;;;29.73;;
68212;SDS011;55035;47.792;8.724;2023-12-07T00:28:12;32.90;;;29.65;;
68212;SDS011;55035;47.792;8.724;2023-12-07T00:30:39;32.75;;;29.52;;
68212;SDS011;55035;47.792;8.724;2023-12-07T00:33:07;32.55;;;29.35;;
68212;SDS011;55035;47.792;8.724;2023-12-07T00:35:34;31.15;;;28.15;;
68212;SDS011;55035;47.792;8.724;2023-12-07T00:38:01;33.03;;;29.83;;
68212;SDS011;55035;47.792;8.724;2023-12-07T00:40:27;32.38;;;29.17;;
68212;SDS011;55035;47.792;8.724;2023-12-07T00:42:55;31.83;;;28.67;;
68212;SDS011;55035;47.792;8.724;2023-12-07T00:45:22;33.80;;;30.40;;
68212;SDS011;55035;47.792;8.724;2023-12-07T00:47:48;33.50;;;30.10;;
68212;SDS011;55035;47.792;8.724;2023-12-07T00:50:15;32.78;;;29.38;;
68212;SDS011;55035;47.792;8.724;2023-12-07T00:52:42;30.75;;;27.75;;
68212;SDS011;55035;47.792;8.724;2023-12-07T00:55:08;32.83;;;29.65;;
68212;SDS011;55035;47.792;8.724;2023-12-07T00:57:35;31.27;;;28.17;;
68212;SDS011;55035;47.792;8.724;2023-12-07T01:00:04;32.55;;;29.25;;
68212;SDS011;55035;47.792;8.724;2023-12-07T01:02:31;34.17;;;30.67;;
68212;SDS011;55035;47.792;8.724;2023-12-07T01:04:58;31.93;;;28.73;;
68212;SDS011;55035;47.792;8.724;2023-12-07T01:07:24;32.05;;;28.83;;
68212;SDS011;55035;47.792;8.724;2023-12-07T01:09:51;31.73;;;28.48;;
68212;SDS011;55035;47.792;8.724;2023-12-07T01:12:18;32.93;;;29.67;;
68212;SDS011;55035;47.792;8.724;2023-12-07T01:14:45;31.83;;;28.67;;
68212;SDS011;55035;47.792;8.724;2023-12-07T01:17:13;32.42;;;29.35;;
68212;SDS011;55035;47.792;8.724;2023-12-07T01:19:40;33.10;;;29.85;;
68212;SDS011;55035;47.792;8.724;2023-12-07T01:22:07;34.60;;;31.17;;
68212;SDS011;55035;47.792;8.724;2023-12-07T01:24:34;35.22;;;31.73;;
68212;SDS011;55035;47.792;8.724;2023-12-07T01:27:01;33.57;;;30.07;;
68212;SDS011;55035;47.792;8.724;2023-12-07T01:29:27;31.92;;;28.73;;
68212;SDS011;55035;47.792;8.724;2023-12-07T01:31:54;33.25;;;29.95;;
68212;SDS011;55035;47.792;8.724;2023-12-07T01:34:22;31.80;;;28.70;;
68212;SDS011;55035;47.792;8.724;2023-12-07T01:36:48;31.75;;;28.55;;
68212;SDS011;55035;47.792;8.724;2023-12-07T01:39:15;34.47;;;31.05;;
68212;SDS011;55035;47.792;8.724;2023-12-07T01:41:42;33.77;;;30.47;;
68212;SDS011;55035;47.792;8.724;2023-12-07T01:44:08;33.03;;;29.63;;
68212;SDS011;55035;47.792;8.724;2023-12-07T01:46:35;31.50;;;28.25;;
68212;SDS011;55035;47.792;8.724;2023-12-07T01:49:01;33.80;;;30.43;;
68212;SDS011;55035;47.792;8.724;2023-12-07T01:51:30;33.37;;;30.07;;
68212;SDS011;55035;47.792;8.724;2023-12-07T01:53:57;34.37;;;30.93;;
68212;SDS011;55035;47.792;8.724;2023-12-07T01:56:24;34.90;;;31.30;;
68212;SDS011;55035;47.792;8.724;2023-12-07T01:58:51;36.30;;;32.30;;
68212;SDS011;55035;47.792;8.724;2023-12-07T02:01:18;38.37;;;32.23;;
68212;SDS011;55035;47.792;8.724;2023-12-07T02:03:45;37.90;;;33.00;;
68212;SDS011;55035;47.792;8.724;2023-12-07T02:06:11;34.25;;;30.55;;
68212;SDS011;55035;47.792;8.724;2023-12-07T02:08:40;34.08;;;30.58;;
68212;SDS011;55035;47.792;8.724;2023-12-07T02:11:07;32.80;;;29.50;;
68212;SDS011;55035;47.792;8.724;2023-12-07T02:13:35;33.93;;;30.43;;
68212;SDS011;55035;47.792;8.724;2023-12-07T02:16:03;34.92;;;31.25;;
68212;SDS011;55035;47.792;8.724;2023-12-07T02:18:33;36.13;;;30.20;;
68212;SDS011;55035;47.792;8.724;2023-12-07T02:21:02;37.97;;;27.75;;
68212;SDS011;55035;47.792;8.724;2023-12-07T02:23:31;55.30;;;31.52;;
68212;SDS011;55035;47.792;8.724;2023-12-07T02:29:15;41.72;;;32.15;;
68212;SDS011;55035;47.792;8.724;2023-12-07T02:31:42;61.60;;;31.75;;
68212;SDS011;55035;47.792;8.724;2023-12-07T02:34:08;125.97;;;30.70;;
68212;SDS011;55035;47.792;8.724;2023-12-07T02:36:35;112.47;;;32.10;;
68212;SDS011;55035;47.792;8.724;2023-12-07T02:39:03;96.72;;;34.88;;
68212;SDS011;55035;47.792;8.724;2023-12-07T02:41:31;58.72;;;33.05;;
68212;SDS011;55035;47.792;8.724;2023-12-07T02:43:59;91.85;;;34.45;;
68212;SDS011;55035;47.792;8.724;2023-12-07T02:46:27;87.28;;;32.22;;
68212;SDS011;55035;47.792;8.724;2023-12-07T02:48:54;56.77;;;33.63;;
68212;SDS011;55035;47.792;8.724;2023-12-07T02:51:21;238.20;;;32.42;;
68212;SDS011;55035;47.792;8.724;2023-12-07T02:53:47;105.38;;;30.52;;
68212;SDS011;55035;47.792;8.724;2023-12-07T02:56:14;88.23;;;33.03;;
68212;SDS011;55035;47.792;8.724;2023-12-07T02:58:41;120.47;;;35.30;;
68212;SDS011;55035;47.792;8.724;2023-12-07T03:01:07;97.40;;;35.55;;
68212;SDS011;55035;47.792;8.724;2023-12-07T03:03:36;57.13;;;33.90;;
68212;SDS011;55035;47.792;8.724;2023-12-07T03:06:04;54.30;;;27.88;;
68212;SDS011;55035;47.792;8.724;2023-12-07T03:08:30;36.25;;;27.08;;
68212;SDS011;55035;47.792;8.724;2023-12-07T03:10:57;39.40;;;29.03;;
68212;SDS011;55035;47.792;8.724;2023-12-07T03:13:24;36.75;;;27.55;;
68212;SDS011;55035;47.792;8.724;2023-12-07T03:15:50;32.83;;;26.25;;
68212;SDS011;55035;47.792;8.724;2023-12-07T03:18:17;35.50;;;27.23;;
68212;SDS011;55035;47.792;8.724;2023-12-07T03:20:45;30.48;;;25.77;;
68212;SDS011;55035;47.792;8.724;2023-12-07T03:23:11;29.48;;;24.55;;
68212;SDS011;55035;47.792;8.724;2023-12-07T03:25:39;30.48;;;24.30;;
68212;SDS011;55035;47.792;8.724;2023-12-07T03:28:05;33.47;;;26.60;;
68212;SDS011;55035;47.792;8.724;2023-12-07T03:30:32;26.83;;;22.27;;
68212;SDS011;55035;47.792;8.724;2023-12-07T03:32:58;30.83;;;25.13;;
68212;SDS011;55035;47.792;8.724;2023-12-07T03:35:25;28.90;;;23.50;;
68212;SDS011;55035;47.792;8.724;2023-12-07T03:37:53;27.80;;;23.20;;
68212;SDS011;55035;47.792;8.724;2023-12-07T03:40:20;51.13;;;24.58;;
68212;SDS011;55035;47.792;8.724;2023-12-07T03:42:46;83.80;;;25.33;;
68212;SDS011;55035;47.792;8.724;2023-12-07T03:45:13;118.85;;;25.73;;
68212;SDS011;55035;47.792;8.724;2023-12-07T03:47:40;44.78;;;23.42;;
68212;SDS011;55035;47.792;8.724;2023-12-07T03:50:07;51.43;;;25.13;;
68212;SDS011;55035;47.792;8.724;2023-12-07T03:52:33;216.48;;;36.38;;
68212;SDS011;55035;47.792;8.724;2023-12-07T03:55:01;176.68;;;28.25;;
68212;SDS011;55035;47.792;8.724;2023-12-07T03:57:28;158.40;;;28.80;;
68212;SDS011;55035;47.792;8.724;2023-12-07T03:59:53;152.90;;;29.07;;
68212;SDS011;55035;47.792;8.724;2023-12-07T04:02:20;42.20;;;24.90;;
68212;SDS011;55035;47.792;8.724;2023-12-07T04:04:47;32.58;;;22.80;;
68212;SDS011;55035;47.792;8.724;2023-12-07T04:07:13;27.40;;;21.25;;
68212;SDS011;55035;47.792;8.724;2023-12-07T04:09:40;29.88;;;20.40;;
68212;SDS011;55035;47.792;8.724;2023-12-07T04:12:08;40.73;;;23.37;;
68212;SDS011;55035;47.792;8.724;2023-12-07T04:14:35;34.78;;;23.92;;
68212;SDS011;55035;47.792;8.724;2023-12-07T04:17:01;73.63;;;22.87;;
68212;SDS011;55035;47.792;8.724;2023-12-07T04:19:28;38.10;;;23.27;;
68212;SDS011;55035;47.792;8.724;2023-12-07T04:21:54;136.45;;;22.85;;
68212;SDS011;55035;47.792;8.724;2023-12-07T04:24:21;132.63;;;25.63;;
68212;SDS011;55035;47.792;8.724;2023-12-07T04:26:49;149.35;;;25.30;;
68212;SDS011;55035;47.792;8.724;2023-12-07T04:29:17;82.78;;;28.75;;
68212;SDS011;55035;47.792;8.724;2023-12-07T04:31:43;127.10;;;38.67;;
68212;SDS011;55035;47.792;8.724;2023-12-07T04:34:10;99.38;;;27.83;;
68212;SDS011;55035;47.792;8.724;2023-12-07T04:36:37;106.80;;;27.97;;
68212;SDS011;55035;47.792;8.724;2023-12-07T04:39:03;99.30;;;27.02;;
68212;SDS011;55035;47.792;8.724;2023-12-07T04:41:30;201.82;;;27.00;;
68212;SDS011;55035;47.792;8.724;2023-12-07T04:43:57;88.70;;;25.73;;
68212;SDS011;55035;47.792;8.724;2023-12-07T04:46:25;65.45;;;25.60;;
68212;SDS011;55035;47.792;8.724;2023-12-07T04:48:51;74.70;;;25.10;;
68212;SDS011;55035;47.792;8.724;2023-12-07T04:51:18;43.20;;;24.25;;
68212;SDS011;55035;47.792;8.724;2023-12-07T04:53:45;35.65;;;22.70;;
68212;SDS011;55035;47.792;8.724;2023-12-07T04:56:11;31.65;;;23.38;;
68212;SDS011;55035;47.792;8.724;2023-12-07T04:58:38;34.15;;;22.98;;
68212;SDS011;55035;47.792;8.724;2023-12-07T05:01:05;31.33;;;23.30;;
68212;SDS011;55035;47.792;8.724;2023-12-07T05:03:33;39.85;;;22.88;;
68212;SDS011;55035;47.792;8.724;2023-12-07T05:06:00;40.47;;;22.50;;
68212;SDS011;55035;47.792;8.724;2023-12-07T05:08:27;50.35;;;22.77;;
68212;SDS011;55035;47.792;8.724;2023-12-07T05:10:53;63.90;;;24.02;;
68212;SDS011;55035;47.792;8.724;2023-12-07T05:13:20;94.28;;;27.20;;
68212;SDS011;55035;47.792;8.724;2023-12-07T05:15:47;172.75;;;31.88;;
68212;SDS011;55035;47.792;8.724;2023-12-07T05:18:14;136.77;;;32.17;;
68212;SDS011;55035;47.792;8.724;2023-12-07T05:20:41;154.05;;;35.47;;
68212;SDS011;55035;47.792;8.724;2023-12-07T05:23:08;136.33;;;30.30;;
68212;SDS011;55035;47.792;8.724;2023-12-07T05:25:35;180.98;;;32.85;;
68212;SDS011;55035;47.792;8.724;2023-12-07T05:28:02;181.15;;;35.67;;
68212;SDS011;55035;47.792;8.724;2023-12-07T05:30:29;205.70;;;38.25;;
68212;SDS011;55035;47.792;8.724;2023-12-07T05:32:56;307.95;;;36.35;;
68212;SDS011;55035;47.792;8.724;2023-12-07T05:35:23;232.95;;;34.95;;
68212;SDS011;55035;47.792;8.724;2023-12-07T05:37:51;184.47;;;35.77;;
68212;SDS011;55035;47.792;8.724;2023-12-07T05:40:17;246.90;;;33.58;;
68212;SDS011;55035;47.792;8.724;2023-12-07T05:42:45;230.50;;;35.23;;
68212;SDS011;55035;47.792;8.724;2023-12-07T05:45:12;248.35;;;35.85;;
68212;SDS011;55035;47.792;8.724;2023-12-07T05:47:39;377.10;;;36.35;;
68212;SDS011;55035;47.792;8.724;2023-12-07T05:50:06;286.38;;;36.28;;
68212;SDS011;55035;47.792;8.724;2023-12-07T05:52:33;286.70;;;36.85;;
68212;SDS011;55035;47.792;8.724;2023-12-07T05:55:01;140.43;;;31.23;;
68212;SDS011;55035;47.792;8.724;2023-12-07T05:57:28;94.60;;;28.03;;
68212;SDS011;55035;47.792;8.724;2023-12-07T05:59:56;122.07;;;27.35;;
68212;SDS011;55035;47.792;8.724;2023-12-07T06:02:22;92.95;;;27.55;;
68212;SDS011;55035;47.792;8.724;2023-12-07T06:04:49;110.13;;;28.20;;
68212;SDS011;55035;47.792;8.724;2023-12-07T06:07:16;146.60;;;30.05;;
68212;SDS011;55035;47.792;8.724;2023-12-07T06:09:42;145.93;;;30.17;;
68212;SDS011;55035;47.792;8.724;2023-12-07T06:12:10;125.97;;;28.08;;
68212;SDS011;55035;47.792;8.724;2023-12-07T06:14:37;163.80;;;32.55;;
68212;SDS011;55035;47.792;8.724;2023-12-07T06:17:04;124.43;;;29.48;;
68212;SDS011;55035;47.792;8.724;2023-12-07T06:19:30;111.50;;;28.93;;
68212;SDS011;55035;47.792;8.724;2023-12-07T06:21:57;125.22;;;29.27;;
68212;SDS011;55035;47.792;8.724;2023-12-07T06:24:23;137.60;;;28.42;;
68212;SDS011;55035;47.792;8.724;2023-12-07T06:26:50;107.15;;;27.73;;
68212;SDS011;55035;47.792;8.724;2023-12-07T06:29:20;96.85;;;27.85;;
68212;SDS011;55035;47.792;8.724;2023-12-07T06:31:46;128.02;;;28.67;;
68212;SDS011;55035;47.792;8.724;2023-12-07T06:34:13;94.63;;;26.80;;
68212;SDS011;55035;47.792;8.724;2023-12-07T06:36:39;129.30;;;28.15;;
68212;SDS011;55035;47.792;8.724;2023-12-07T06:39:06;63.63;;;27.40;;
68212;SDS011;55035;47.792;8.724;2023-12-07T06:41:33;53.15;;;25.98;;
68212;SDS011;55035;47.792;8.724;2023-12-07T06:43:59;66.18;;;26.42;;
68212;SDS011;55035;47.792;8.724;2023-12-07T06:46:27;54.47;;;26.17;;
68212;SDS011;55035;47.792;8.724;2023-12-07T06:48:54;52.28;;;29.30;;
68212;SDS011;55035;47.792;8.724;2023-12-07T06:51:20;48.83;;;30.25;;
68212;SDS011;55035;47.792;8.724;2023-12-07T06:53:47;42.43;;;27.80;;
68212;SDS011;55035;47.792;8.724;2023-12-07T06:56:14;42.17;;;28.48;;
68212;SDS011;55035;47.792;8.724;2023-12-07T06:58:41;42.33;;;28.77;;
68212;SDS011;55035;47.792;8.724;2023-12-07T07:01:07;41.70;;;28.45;;
68212;SDS011;55035;47.792;8.724;2023-12-07T07:03:35;38.92;;;27.48;;
68212;SDS011;55035;47.792;8.724;2023-12-07T07:06:02;33.10;;;26.65;;
68212;SDS011;55035;47.792;8.724;2023-12-07T07:08:29;34.83;;;27.17;;
68212;SDS011;55035;47.792;8.724;2023-12-07T07:10:55;34.25;;;26.63;;
68212;SDS011;55035;47.792;8.724;2023-12-07T07:13:22;36.65;;;27.73;;
68212;SDS011;55035;47.792;8.724;2023-12-07T07:15:49;35.25;;;28.35;;
68212;SDS011;55035;47.792;8.724;2023-12-07T07:18:15;35.93;;;28.43;;
68212;SDS011;55035;47.792;8.724;2023-12-07T07:20:43;34.35;;;27.50;;
68212;SDS011;55035;47.792;8.724;2023-12-07T07:23:10;34.38;;;27.60;;
68212;SDS011;55035;47.792;8.724;2023-12-07T07:25:37;34.75;;;27.52;;
68212;SDS011;55035;47.792;8.724;2023-12-07T07:28:05;34.63;;;26.73;;
68212;SDS011;55035;47.792;8.724;2023-12-07T07:30:33;34.42;;;27.95;;
68212;SDS011;55035;47.792;8.724;2023-12-07T07:33:00;35.00;;;28.00;;
68212;SDS011;55035;47.792;8.724;2023-12-07T07:35:27;34.13;;;27.50;;
68212;SDS011;55035;47.792;8.724;2023-12-07T07:37:55;35.07;;;28.83;;
68212;SDS011;55035;47.792;8.724;2023-12-07T07:40:22;32.72;;;26.52;;
68212;SDS011;55035;47.792;8.724;2023-12-07T07:42:50;33.60;;;26.83;;
68212;SDS011;55035;47.792;8.724;2023-12-07T07:45:16;35.38;;;27.27;;
68212;SDS011;55035;47.792;8.724;2023-12-07T07:47:43;32.80;;;26.23;;
68212;SDS011;55035;47.792;8.724;2023-12-07T07:50:10;33.13;;;27.17;;
68212;SDS011;55035;47.792;8.724;2023-12-07T07:52:36;33.67;;;27.60;;
68212;SDS011;55035;47.792;8.724;2023-12-07T07:55:05;36.00;;;28.08;;
68212;SDS011;55035;47.792;8.724;2023-12-07T07:57:32;40.58;;;31.35;;
68212;SDS011;55035;47.792;8.724;2023-12-07T07:59:59;41.70;;;31.85;;
68212;SDS011;55035;47.792;8.724;2023-12-07T08:02:25;44.67;;;31.43;;
68212;SDS011;55035;47.792;8.724;2023-12-07T08:04:52;49.67;;;32.85;;
68212;SDS011;55035;47.792;8.724;2023-12-07T08:07:19;57.10;;;35.40;;
68212;SDS011;55035;47.792;8.724;2023-12-07T08:09:45;116.17;;;50.33;;
68212;SDS011;55035;47.792;8.724;2023-12-07T08:12:14;137.77;;;44.58;;
68212;SDS011;55035;47.792;8.724;2023-12-07T08:14:40;126.32;;;41.28;;
68212;SDS011;55035;47.792;8.724;2023-12-07T08:17:09;99.80;;;40.20;;
68212;SDS011;55035;47.792;8.724;2023-12-07T08:19:35;102.55;;;39.53;;
68212;SDS011;55035;47.792;8.724;2023-12-07T08:22:03;108.15;;;42.17;;
68212;SDS011;55035;47.792;8.724;2023-12-07T08:24:29;98.70;;;39.70;;
68212;SDS011;55035;47.792;8.724;2023-12-07T08:26:56;99.45;;;39.70;;
68212;SDS011;55035;47.792;8.724;2023-12-07T08:29:24;80.97;;;40.75;;
68212;SDS011;55035;47.792;8.724;2023-12-07T08:31:51;74.03;;;39.92;;
68212;SDS011;55035;47.792;8.724;2023-12-07T08:34:18;71.83;;;40.00;;
68212;SDS011;55035;47.792;8.724;2023-12-07T08:36:44;71.07;;;38.88;;
68212;SDS011;55035;47.792;8.724;2023-12-07T08:39:11;76.95;;;41.22;;
68212;SDS011;55035;47.792;8.724;2023-12-07T08:41:37;68.63;;;37.63;;
68212;SDS011;55035;47.792;8.724;2023-12-07T08:44:04;69.63;;;37.13;;
68212;SDS011;55035;47.792;8.724;2023-12-07T08:46:32;64.45;;;36.53;;
68212;SDS011;55035;47.792;8.724;2023-12-07T08:48:59;62.10;;;38.40;;
68212;SDS011;55035;47.792;8.724;2023-12-07T08:51:26;65.90;;;36.30;;
68212;SDS011;55035;47.792;8.724;2023-12-07T08:53:52;65.95;;;36.90;;
68212;SDS011;55035;47.792;8.724;2023-12-07T08:56:19;66.20;;;37.78;;
68212;SDS011;55035;47.792;8.724;2023-12-07T08:58:45;75.40;;;47.08;;
68212;SDS011;55035;47.792;8.724;2023-12-07T09:01:12;72.93;;;43.85;;
68212;SDS011;55035;47.792;8.724;2023-12-07T09:03:40;58.67;;;37.13;;
68212;SDS011;55035;47.792;8.724;2023-12-07T09:06:07;58.50;;;36.60;;
68212;SDS011;55035;47.792;8.724;2023-12-07T09:08:35;64.18;;;41.53;;
68212;SDS011;55035;47.792;8.724;2023-12-07T09:11:01;64.87;;;41.37;;
68212;SDS011;55035;47.792;8.724;2023-12-07T09:13:29;60.50;;;39.65;;
68212;SDS011;55035;47.792;8.724;2023-12-07T09:15:55;59.30;;;39.13;;
68212;SDS011;55035;47.792;8.724;2023-12-07T09:18:22;50.13;;;36.42;;
68212;SDS011;55035;47.792;8.724;2023-12-07T09:20:50;50.40;;;38.17;;
68212;SDS011;55035;47.792;8.724;2023-12-07T09:23:20;36.90;;;29.05;;
68212;SDS011;55035;47.792;8.724;2023-12-07T09:25:47;45.88;;;36.67;;
68212;SDS011;55035;47.792;8.724;2023-12-07T09:28:13;55.83;;;46.77;;
68212;SDS011;55035;47.792;8.724;2023-12-07T09:30:40;36.08;;;30.42;;
68212;SDS011;55035;47.792;8.724;2023-12-07T09:33:07;44.03;;;36.47;;
68212;SDS011;55035;47.792;8.724;2023-12-07T09:35:34;49.38;;;39.95;;
68212;SDS011;55035;47.792;8.724;2023-12-07T09:38:02;54.40;;;42.85;;
68212;SDS011;55035;47.792;8.724;2023-12-07T09:40:29;42.47;;;34.00;;
68212;SDS011;55035;47.792;8.724;2023-12-07T09:42:56;43.67;;;34.80;;
68212;SDS011;55035;47.792;8.724;2023-12-07T09:45:23;35.70;;;30.15;;
68212;SDS011;55035;47.792;8.724;2023-12-07T09:47:50;35.58;;;31.17;;
68212;SDS011;55035;47.792;8.724;2023-12-07T09:50:17;32.78;;;28.48;;
68212;SDS011;55035;47.792;8.724;2023-12-07T09:52:47;30.77;;;27.03;;
68212;SDS011;55035;47.792;8.724;2023-12-07T09:55:15;27.85;;;24.05;;
68212;SDS011;55035;47.792;8.724;2023-12-07T09:57:42;27.15;;;23.55;;
68212;SDS011;55035;47.792;8.724;2023-12-07T10:00:10;28.45;;;24.75;;
68212;SDS011;55035;47.792;8.724;2023-12-07T10:02:39;23.45;;;16.67;;
68212;SDS011;55035;47.792;8.724;2023-12-07T10:05:06;20.38;;;12.70;;
68212;SDS011;55035;47.792;8.724;2023-12-07T10:07:36;21.33;;;12.23;;
68212;SDS011;55035;47.792;8.724;2023-12-07T10:10:03;21.27;;;12.45;;
68212;SDS011;55035;47.792;8.724;2023-12-07T10:12:32;20.75;;;12.15;;
68212;SDS011;55035;47.792;8.724;2023-12-07T10:14:59;20.77;;;12.18;;
68212;SDS011;55035;47.792;8.724;2023-12-07T10:17:37;20.85;;;12.57;;
68212;SDS011;55035;47.792;8.724;2023-12-07T10:20:09;20.15;;;11.98;;
68212;SDS011;55035;47.792;8.724;2023-12-07T10:22:38;20.67;;;12.27;;
68212;SDS011;55035;47.792;8.724;2023-12-07T10:25:05;21.60;;;12.18;;
68212;SDS011;55035;47.792;8.724;2023-12-07T10:27:33;21.92;;;12.52;;
68212;SDS011;55035;47.792;8.724;2023-12-07T10:30:00;19.27;;;11.73;;
68212;SDS011;55035;47.792;8.724;2023-12-07T10:32:27;20.30;;;11.60;;
68212;SDS011;55035;47.792;8.724;2023-12-07T10:34:54;19.77;;;11.63;;
68212;SDS011;55035;47.792;8.724;2023-12-07T10:37:23;19.55;;;11.55;;
68212;SDS011;55035;47.792;8.724;2023-12-07T10:39:51;18.35;;;11.05;;
68212;SDS011;55035;47.792;8.724;2023-12-07T10:42:17;19.58;;;11.15;;
68212;SDS011;55035;47.792;8.724;2023-12-07T10:44:46;19.02;;;11.40;;
68212;SDS011;55035;47.792;8.724;2023-12-07T10:47:14;21.33;;;12.40;;
68212;SDS011;55035;47.792;8.724;2023-12-07T10:49:43;21.88;;;12.88;;
68212;SDS011;55035;47.792;8.724;2023-12-07T10:52:11;21.23;;;12.15;;
68212;SDS011;55035;47.792;8.724;2023-12-07T10:54:41;19.95;;;11.25;;
68212;SDS011;55035;47.792;8.724;2023-12-07T10:57:10;19.08;;;11.30;;
68212;SDS011;55035;47.792;8.724;2023-12-07T10:59:39;17.55;;;10.68;;
68212;SDS011;55035;47.792;8.724;2023-12-07T11:02:08;17.48;;;10.40;;
68212;SDS011;55035;47.792;8.724;2023-12-07T11:04:36;22.15;;;15.75;;
68212;SDS011;55035;47.792;8.724;2023-12-07T11:07:09;25.52;;;18.15;;
68212;SDS011;55035;47.792;8.724;2023-12-07T11:09:45;19.95;;;13.60;;
68212;SDS011;55035;47.792;8.724;2023-12-07T11:12:17;15.60;;;9.93;;
68212;SDS011;55035;47.792;8.724;2023-12-07T11:14:45;15.73;;;9.13;;
68212;SDS011;55035;47.792;8.724;2023-12-07T11:17:13;14.48;;;9.20;;
68212;SDS011;55035;47.792;8.724;2023-12-07T11:19:44;14.73;;;8.97;;
68212;SDS011;55035;47.792;8.724;2023-12-07T11:22:11;13.15;;;8.32;;
68212;SDS011;55035;47.792;8.724;2023-12-07T11:24:38;15.63;;;9.43;;
68212;SDS011;55035;47.792;8.724;2023-12-07T11:27:05;16.05;;;9.10;;
68212;SDS011;55035;47.792;8.724;2023-12-07T11:29:32;23.83;;;12.95;;
68212;SDS011;55035;47.792;8.724;2023-12-07T11:32:00;18.33;;;11.50;;
68212;SDS011;55035;47.792;8.724;2023-12-07T11:34:35;16.90;;;10.00;;
68212;SDS011;55035;47.792;8.724;2023-12-07T11:37:02;16.33;;;9.60;;
68212;SDS011;55035;47.792;8.724;2023-12-07T11:39:29;18.87;;;10.70;;
68212;SDS011;55035;47.792;8.724;2023-12-07T11:42:05;17.48;;;10.48;;
68212;SDS011;55035;47.792;8.724;2023-12-07T11:44:33;13.98;;;8.73;;
68212;SDS011;55035;47.792;8.724;2023-12-07T11:47:00;13.13;;;8.20;;
68212;SDS011;55035;47.792;8.724;2023-12-07T11:49:26;13.70;;;8.75;;
68212;SDS011;55035;47.792;8.724;2023-12-07T11:51:56;15.15;;;9.00;;
68212;SDS011;55035;47.792;8.724;2023-12-07T11:54:23;15.48;;;8.98;;
68212;SDS011;55035;47.792;8.724;2023-12-07T11:56:51;14.00;;;8.40;;
68212;SDS011;55035;47.792;8.724;2023-12-07T11:59:18;17.17;;;10.37;;
68212;SDS011;55035;47.792;8.724;2023-12-07T12:01:46;18.23;;;10.10;;
68212;SDS011;55035;47.792;8.724;2023-12-07T12:04:12;18.52;;;10.68;;
68212;SDS011;55035;47.792;8.724;2023-12-07T12:06:39;17.30;;;10.50;;
68212;SDS011;55035;47.792;8.724;2023-12-07T12:09:07;17.08;;;10.50;;
68212;SDS011;55035;47.792;8.724;2023-12-07T12:11:35;17.15;;;10.07;;
68212;SDS011;55035;47.792;8.724;2023-12-07T12:14:02;16.88;;;10.43;;
68212;SDS011;55035;47.792;8.724;2023-12-07T12:16:29;18.48;;;11.13;;
68212;SDS011;55035;47.792;8.724;2023-12-07T12:18:56;18.52;;;10.77;;
68212;SDS011;55035;47.792;8.724;2023-12-07T12:21:23;18.60;;;10.75;;
68212;SDS011;55035;47.792;8.724;2023-12-07T12:23:50;19.08;;;10.90;;
68212;SDS011;55035;47.792;8.724;2023-12-07T12:26:18;16.77;;;9.97;;
68212;SDS011;55035;47.792;8.724;2023-12-07T12:28:45;20.65;;;11.80;;
68212;SDS011;55035;47.792;8.724;2023-12-07T12:31:12;21.10;;;12.38;;
68212;SDS011;55035;47.792;8.724;2023-12-07T12:33:39;23.03;;;13.90;;
68212;SDS011;55035;47.792;8.724;2023-12-07T12:36:06;21.30;;;12.88;;
68212;SDS011;55035;47.792;8.724;2023-12-07T12:38:36;23.80;;;13.90;;
68212;SDS011;55035;47.792;8.724;2023-12-07T12:41:04;23.80;;;14.57;;
68212;SDS011;55035;47.792;8.724;2023-12-07T12:43:32;22.40;;;13.70;;
68212;SDS011;55035;47.792;8.724;2023-12-07T12:45:59;23.00;;;14.60;;
68212;SDS011;55035;47.792;8.724;2023-12-07T12:48:25;24.00;;;15.17;;
68212;SDS011;55035;47.792;8.724;2023-12-07T12:50:52;25.73;;;17.88;;
68212;SDS011;55035;47.792;8.724;2023-12-07T12:53:19;23.90;;;15.68;;
68212;SDS011;55035;47.792;8.724;2023-12-07T12:55:47;22.23;;;15.70;;
68212;SDS011;55035;47.792;8.724;2023-12-07T12:58:14;21.00;;;12.15;;
68212;SDS011;55035;47.792;8.724;2023-12-07T13:00:43;19.57;;;11.80;;
68212;SDS011;55035;47.792;8.724;2023-12-07T13:03:11;21.35;;;12.35;;
68212;SDS011;55035;47.792;8.724;2023-12-07T13:05:38;21.90;;;12.52;;
68212;SDS011;55035;47.792;8.724;2023-12-07T13:08:05;21.13;;;12.45;;
68212;SDS011;55035;47.792;8.724;2023-12-07T13:10:31;20.95;;;12.30;;
68212;SDS011;55035;47.792;8.724;2023-12-07T13:12:58;21.33;;;12.30;;
68212;SDS011;55035;47.792;8.724;2023-12-07T13:15:24;21.70;;;12.88;;
68212;SDS011;55035;47.792;8.724;2023-12-07T13:17:53;22.67;;;13.10;;
68212;SDS011;55035;47.792;8.724;2023-12-07T13:20:20;23.20;;;13.05;;
68212;SDS011;55035;47.792;8.724;2023-12-07T13:22:47;21.97;;;12.67;;
68212;SDS011;55035;47.792;8.724;2023-12-07T13:25:15;22.77;;;13.00;;
68212;SDS011;55035;47.792;8.724;2023-12-07T13:27:42;22.83;;;13.18;;
68212;SDS011;55035;47.792;8.724;2023-12-07T13:30:09;22.90;;;13.45;;
68212;SDS011;55035;47.792;8.724;2023-12-07T13:32:36;23.98;;;13.18;;
68212;SDS011;55035;47.792;8.724;2023-12-07T13:35:05;23.60;;;13.33;;
68212;SDS011;55035;47.792;8.724;2023-12-07T13:37:33;24.17;;;14.10;;
68212;SDS011;55035;47.792;8.724;2023-12-07T13:40:00;30.05;;;22.48;;
68212;SDS011;55035;47.792;8.724;2023-12-07T13:42:29;33.00;;;28.00;;
68212;SDS011;55035;47.792;8.724;2023-12-07T13:44:57;33.78;;;28.48;;
68212;SDS011;55035;47.792;8.724;2023-12-07T13:47:25;34.05;;;28.63;;
68212;SDS011;55035;47.792;8.724;2023-12-07T13:49:56;34.50;;;28.92;;
68212;SDS011;55035;47.792;8.724;2023-12-07T13:52:24;33.92;;;28.30;;
68212;SDS011;55035;47.792;8.724;2023-12-07T13:54:51;33.20;;;28.10;;
68212;SDS011;55035;47.792;8.724;2023-12-07T13:57:18;31.33;;;27.02;;
68212;SDS011;55035;47.792;8.724;2023-12-07T13:59:45;30.60;;;25.73;;
68212;SDS011;55035;47.792;8.724;2023-12-07T14:02:11;28.40;;;20.83;;
68212;SDS011;55035;47.792;8.724;2023-12-07T14:04:38;23.33;;;13.90;;
68212;SDS011;55035;47.792;8.724;2023-12-07T14:07:08;23.17;;;13.20;;
68212;SDS011;55035;47.792;8.724;2023-12-07T14:09:36;23.23;;;13.10;;
68212;SDS011;55035;47.792;8.724;2023-12-07T14:12:04;22.63;;;13.23;;
68212;SDS011;55035;47.792;8.724;2023-12-07T14:14:30;24.88;;;15.02;;
68212;SDS011;55035;47.792;8.724;2023-12-07T14:16:57;28.58;;;19.92;;
68212;SDS011;55035;47.792;8.724;2023-12-07T14:19:24;22.92;;;13.18;;
68212;SDS011;55035;47.792;8.724;2023-12-07T14:21:50;22.67;;;13.27;;
68212;SDS011;55035;47.792;8.724;2023-12-07T14:24:17;22.60;;;13.05;;